Breeders Fall Classic - 30 MILES

Station: 30 MILES - T Race

Distance: 30 Miles

Release: 10-Sep-2019 08:31

Weather Release:    Arrival:

Wind at Release:     Wind at Arrival:

Temp at Release: °    Temp at Arrival: °

Lofts: 111

Birds: 454

Clocked: 450

Lost sun 2 miles after release, birds flying on radar only. Birds missing
Drops Pos Breeder Pigeon Name Color Sex Ent Arrival Speed To Win Elg PdRedGriz
1 Los Cubanitos Loft 2 - GA 0116-AU19-JEDD BC H 1 09:54:50.10 629.809 00:00:00 Yes
2 Q-Ba Family Loft - TX 0839-AU19-SANZ “Meteor-De46 Blood 839 BC 0 1 09:54:51.50 629.633 00:00:01 Yes
3 Kui's Loft - NY 3008-AU19-JEDD BB H 1 09:54:55.60 629.121 00:00:06 Yes
4 Mike Hines - SD 9155-AU19-GPF BB H 1 09:54:57.80 628.846 00:00:08 Yes
5 K T Loft - IN 0407-AU19-KTLF BB H 1 09:55:00.90 628.459 00:00:11 Yes
6 Carlos And Liam Loft - NC 0371-IF19-TRC BC H 1 09:55:05.90 627.836 00:00:16 Yes
7 Kui's Loft - NY 3004-AU19-JEDD BC H 2 09:55:06.60 627.749 00:00:17 Yes
8 Q-Ba Family Loft - TX 0840-AU19-SANZ “Meteor-De46 Blood 840 BCWF 0 2 09:55:08.20 627.550 00:00:18 Yes
8 Rodney Morris - ON 0103-CU19-KING BBWF H 1 09:55:08.20 627.550 00:00:18 Yes
10 Walters Loft - NJ 27516-AU19-ARPU BC H 1 09:55:09.30 627.414 00:00:19 Yes
11 Walters Loft - NJ 27506-AU19-ARPU DC H 2 09:55:09.80 627.352 00:00:20 Yes
12 Q-Ba Family Loft - TX 0828-AU19-SANZ “Blade 100%” BB 0 3 09:55:10.50 627.265 00:00:20 Yes
13 Columba Loft - GA 9164-AU19-LYCH 156 X 85 BB H 1 09:55:11.30 627.165 00:00:21 Yes
14 Thunder Birds/Rodriguez Breeding Loft - TX 19052-AU19-WIN Puss In Boots! BC H 1 09:55:11.80 627.103 00:00:22 Yes
15 Genesis Syndicate Loft - AZ 0020-AU19-GENS BB H 1 09:55:12.80 626.979 00:00:23 Yes
16 Kastle Loft - KY 1929-AU19-KASL Kiss Me BB H 1 09:55:13.60 626.880 00:00:24 Yes
17 Tim Byers - OH 9115-AU19-BUCK SILV H 1 09:55:14.10 626.818 00:00:24 Yes
18 Bushmaster & Nieves Loft - PR 4021-AU19-ARPU Te mataste tu mismo BBPW H 1 09:55:14.60 626.756 00:00:25 Yes
19 Si Se Puede Loft - TX 1915-AU19-SISE BMW-1 BBSP H 1 09:55:15.80 626.607 00:00:26 Yes
19 Nanez Family Lofts - WI 50644-IF19-R BB H 1 09:55:15.80 626.607 00:00:26 Yes
21 Lin's Loft - CT 0007-AU19-LIN CHSP H 1 09:55:15.90 626.595 00:00:26 Yes
22 Do Drop In Loft - NC 0040-IF19-TRC Payday BB H 1 09:55:16.40 626.533 00:00:26 Yes
23 Zekes - NY 70804-AU19-ARPU BCWF H 1 09:55:16.90 626.471 00:00:27 Yes
23 Dan & Greg Coury - AZ 0335-AU19-AONE lmge/bmb.oldbyjewel/2206 BCWF H 1 09:55:16.90 626.471 00:00:27 Yes
25 Hunsicker Ranch - CA 18523-AU19-SYV BC H 1 09:55:17.30 626.421 00:00:27 Yes
26 E & E Loft - WA 0511-AU19-SKI BB H 1 09:55:17.60 626.384 00:00:28 Yes
27 Si Se Puede Loft - TX 1918-AU19-SISE BMW-2 BBWF H 2 09:55:18.10 626.322 00:00:28 Yes
28 Nemelka Racing Pigeon Loft - UT 9000-AU19-NRPL Nitty Gritty BB C 1 09:55:19.40 626.161 00:00:29 Yes
29 Elton Dinga - TX 16113-AU19-AA Klaas 1227 x Diels BC H 1 09:55:19.90 626.099 00:00:30 Yes
29 King Brand Syndicate - IA 66507-AU19-ARPU BB H 1 09:55:19.90 626.099 00:00:30 Yes
31 Hale Nūnū - VA 0004-IF19-NUNU BB H 1 09:55:20.40 626.037 00:00:30 Yes
32 De La O/Sino/Baro - CA 9012-AU19-COOK DC H 1 09:55:20.90 625.976 00:00:31 Yes
33 Kai Loft - PA 1011-IF19-KAI BC H 1 09:55:21.40 625.914 00:00:31 Yes
33 King Brand Syndicate - IA 66508-AU19-ARPU BB H 2 09:55:21.40 625.914 00:00:31 Yes
35 Rampage Racing - TX 15737-AU19-AA BB H 1 09:55:22.00 625.840 00:00:32 Yes
36 Silicon Valley Syndicates - CA 19005-AU19-SVS BB H 1 09:55:22.50 625.778 00:00:32 Yes
37 Rodney Morris - ON 0104-CU19-KING BC H 2 09:55:23.90 625.605 00:00:34 Yes
38 A P C Loft - TX 19111-AU19-APC BC H 1 09:55:24.40 625.543 00:00:34 Yes
39 Big Andy And Mike Cortes - FL 13760-AU19-GHC BB H 1 09:55:24.90 625.481 00:00:35 Yes
40 Notch-Cutter/Karges/Silvio - TX 0027-AU19-USA Ephesians 6:12 BCPW H 1 09:55:25.20 625.444 00:00:35 Yes
41 Bill Hermann - MO 1216-AU19-AA BB H 1 09:55:25.70 625.382 00:00:36 Yes
42 Drama Queen Loft - TX 0937-AU19-GCI BB H 1 09:55:26.20 625.321 00:00:36 Yes
42 Jed Loft - LA 0911-AU19-JED Call 911 BB H 1 09:55:26.20 625.321 00:00:36 Yes
44 Relax /Rolex Loft - CA 80725-AU19-MAN BBSP H 1 09:55:26.70 625.259 00:00:37 Yes
45 Genesis Syndicate Loft - AZ 0023-AU19-GENS BC H 2 09:55:26.90 625.234 00:00:37 Yes
46 Silicon Valley Syndicates - CA 19114-AU19-SVS BB H 2 09:55:27.00 625.222 00:00:37 Yes
47 Lazy A C Loft - IN 0449-AU19-LAZY BC H 1 09:55:27.40 625.173 00:00:37 Yes
48 Thunder Birds/Rodriguez Breeding Loft - TX 19051-AU19-WIN Voltes V BC H 2 09:55:27.80 625.123 00:00:38 Yes
48 Lazy A C Loft - IN 0451-AU19-LAZY BC H 2 09:55:27.80 625.123 00:00:38 Yes
50 S & P Loft - MI 13906-AU19-AA CHOC H 1 09:55:28.30 625.062 00:00:38 Yes
51 98 M J - PA 0037-AU19-AJLF GRIZ H 1 09:55:30.20 624.827 00:00:40 Yes
52 Zekes - NY 70879-AU19-ARPU BBSP H 2 09:55:30.30 624.815 00:00:40 Yes
53 Abilene Loft - OH 1220-AU19-MVS BB H 1 09:55:31.30 624.692 00:00:41 Yes
54 Goldstar & Angel Loft - IL 6931-AU19-STAR Mountain Climber BC C 1 09:55:31.80 624.630 00:00:42 Yes
55 Country Home Aviary - NC 9550-AU19-CV SILV 0 1 09:55:32.30 624.569 00:00:42 Yes
55 Mike Hines - SD 9156-AU19-GPF BCPW H 2 09:55:32.30 624.569 00:00:42 Yes
57 John Fukumoto - HI 0733-AU19-HAWN BBWF H 1 09:55:32.80 624.507 00:00:43 Yes
58 America Loft - IN 0093-AU19-AMER SANDOBAL BB H 1 09:55:33.30 624.446 00:00:43 Yes
59 Sanborn Loft - OH 0501-AU19-IHC BB H 1 09:55:34.10 624.347 00:00:44 Yes
59 Baldwin & Tilson - NC 9236-AU19-TENT 1066-52 BC H 1 09:55:34.10 624.347 00:00:44 Yes
61 Cross Creek Loft Of Nc - NC 9505-AU19-MAC DC H 1 09:55:34.60 624.286 00:00:45 Yes
62 Irishsyndicatelofts - AZ 0770-IF19-IRIS BBPW H 1 09:55:35.10 624.224 00:00:45 Yes
63 Marengo Creek Farms - AL 3277-AU19-MCF BB H 1 09:55:35.20 624.212 00:00:45 Yes
64 Torresloft - NC 0701-IF19-TRC BBWF H 1 09:55:35.60 624.163 00:00:46 Yes
65 Da-Dong - WI 1613-AU19-RAC 858-762 BB H 1 09:55:38.30 623.831 00:00:48 Yes
66 Genesis Syndicate Loft - AZ 0746-AU19-GENS BB H 3 09:55:42.20 623.352 00:00:52 Yes
67 Iditarod Loft - MT 17220-AU19-AA BC H 1 09:56:07.80 620.228 00:01:18 Yes
68 John Fukumoto - HI 0722-AU19-HAWN BB H 2 09:56:10.90 619.852 00:01:21 Yes
69 Baldwin & Tilson - NC 9237-AU19-TENT 1066-52 BC H 2 09:56:12.10 619.706 00:01:22 Yes
70 King Conch Loft - ON 0801-AU19-SMCC BBSP H 1 09:56:13.10 619.585 00:01:23 Yes
71 Emc Loft - NC 60550-IF19-E SILV H 1 09:56:13.60 619.524 00:01:24 Yes
72 Era Loft - NY 0625-AU19-BUF BC H 1 09:56:14.60 619.403 00:01:25 Yes
73 A P C Loft - TX 19071-AU19-APC BB H 2 09:56:16.70 619.149 00:01:27 Yes
74 J & M Partridge Loft - CA 1702-AU19-PASO BB 0 1 09:56:17.40 619.064 00:01:27 Yes
75 Zekes - NY 70809-AU19-ARPU H 3 09:56:17.90 619.004 00:01:28 Yes
76 K T Loft - IN 0480-AU19-KTLF BBWF H 2 09:56:18.10 618.980 00:01:28 Yes
76 Jed Loft - LA 0903-AU19-JED High Class BB H 2 09:56:18.10 618.980 00:01:28 Yes
78 Avelino Loft - CA 0323-AU19-HAN BB H 1 09:56:19.10 618.859 00:01:29 Yes
78 J & M Partridge Loft - CA 1604-AU19-PASO BB H 2 09:56:19.10 618.859 00:01:29 Yes
80 Burns Loft - KS 8531-AU19-SWK BB H 1 09:56:19.70 618.786 00:01:30 Yes
81 Elton Dinga - TX 16114-AU19-AA Klaas 1227 x Diels RC H 2 09:56:20.20 618.726 00:01:30 Yes
81 Dan & Greg Coury - AZ 13930-AU19-JEDD 1440 526 DC H 2 09:56:20.20 618.726 00:01:30 Yes
83 Burns Loft - KS 8526-AU19-SWK BB H 2 09:56:21.00 618.629 00:01:31 Yes
84 Lone Oak Loft - TX 0119-AU19-LOL Albert-Ava-3 BB H 1 09:56:21.10 618.617 00:01:31 Yes
85 Zekes - NY 70890-AU19-ARPU BCPW H 4 09:56:21.60 618.557 00:01:32 Yes
86 Double J Racing Loft - OH 0004-AU19-POUS BB H 1 09:56:22.40 618.460 00:01:32 Yes
87 Avelino Loft - CA 0314-AU19-HAN BB H 2 09:56:23.00 618.388 00:01:33 Yes
88 Andy Owen - GA 1055-AU19-CGA BB H 1 09:56:23.70 618.303 00:01:34 Yes
89 Silicon Valley Syndicates - CA 19111-AU19-SVS BB H 3 09:56:23.80 618.291 00:01:34 Yes
90 King Conch Loft - ON 0131-CU19-KING BB H 2 09:56:25.30 618.110 00:01:35 Yes
91 A-Lo-Loft - NY 2866-AU19-FOYS ☯️s6672xD7010☯️ BLK H 1 09:56:25.80 618.050 00:01:36 Yes
92 Wareagle Loft - AL 0548-AU19-WEL BBPD H 1 09:56:26.30 617.990 00:01:36 Yes
92 Cherokee Loft - MI 0508-AU19-CHEK BC H 1 09:56:26.30 617.990 00:01:36 Yes
94 Crazy Als Lofts - CO 5610-AU19-CRAZ BCPD H 1 09:56:28.20 617.761 00:01:38 Yes
95 Rodney Morris - ON 19184-CU19-CRPU GRIZ H 3 09:56:28.60 617.712 00:01:39 Yes
96 A P C Loft - TX 19137-AU19-APC BB H 3 09:56:28.90 617.676 00:01:39 Yes
96 Bill Hermann - MO 1221-AU19-AA BB H 2 09:56:28.90 617.676 00:01:39 Yes
98 Chen Loft - PA 0674-IF19-LU 1742/ TVC1562 BB H 1 09:56:29.60 617.592 00:01:40 Yes
99 K T Loft - IN 0432-AU19-KTLF BC H 3 09:56:29.90 617.556 00:01:40 Yes
100 Jed Loft - LA 0939-AU19-JED Double Cross BB H 3 09:56:30.40 617.496 00:01:40 Yes

There are 515 bird records

Note: These Race Results are unofficial and subject to change until verified by the Race Committee and declared final.